Emily Pg — MXOO8 — position and weather

sailwx.info

Track history (hours):
 
Tides and Currents Weather Stations Pressure Air Temp Water Temp Dewpoint Dewpoint Depression Visibility Wind Speed Wind Dir Waves Ship Positions

Emily Pg

Last reported at 2017-Sep-18 06:04 UTC. Time now 2017-Sep-23 23:48 UTC.
Position N 16°29' W 062°40'.

Length 102 m; draft 5.5 m.

Type: Tanker. MMSI: 232566000.

Date/timePositionNaut miles runAvg speedWind from/ knotsBaromVisibWave heightAir tempDewpointWater temp
2017-Sep-18 06:04N 16°29' W 062°40'411.1
2017-Sep-18 05:42N 16°33' W 062°41'7011.0
2017-Sep-17 23:21N 17°42' W 062°54'611.4
2017-Sep-17 22:52N 17°47' W 062°54'65 4.9
2017-Sep-17 09:35N 16°47' W 062°28'110.3
2017-Sep-17 09:30N 16°46' W 062°27'510.3
2017-Sep-17 09:01N 16°42' W 062°24'510.4
2017-Sep-17 08:30N 16°38' W 062°21'510.6
2017-Sep-17 08:00N 16°34' W 062°18'510.5
2017-Sep-17 07:31N 16°30' W 062°14'510.5
2017-Sep-17 07:01N 16°25' W 062°11'510.2
2017-Sep-17 06:31N 16°21' W 062°08'510.3
2017-Sep-17 06:00N 16°17' W 062°05'610.5
2017-Sep-17 05:23N 16°12' W 062°01'1710.6
2017-Sep-17 03:47N 15°59' W 061°49'310.9
2017-Sep-17 03:30N 15°58' W 061°46'10 9.8
2017-Sep-17 02:31N 15°58' W 061°36'610.2
2017-Sep-17 01:58N 16°01' W 061°32'5 9.9
2017-Sep-17 01:31N 16°06' W 061°31'510.7
2017-Sep-17 01:01N 16°11' W 061°31'3 0.4
2017-Sep-16 17:16N 16°14' W 061°33'0 0.0
2017-Sep-16 17:00N 16°14' W 061°33'3 5.9
2017-Sep-16 16:30N 16°11' W 061°31'5 9.2
2017-Sep-16 16:00N 16°07' W 061°30'711.5
2017-Sep-16 15:23N 15°60' W 061°31'510.9
2017-Sep-16 14:55N 15°58' W 061°35'7 9.6
2017-Sep-16 14:10N 15°55' W 061°43'310.5
2017-Sep-16 13:53N 15°55' W 061°46'3511.1
2017-Sep-16 10:47N 16°21' W 062°10'311.1
2017-Sep-16 10:30N 16°24' W 062°12'611.1
2017-Sep-16 10:00N 16°28' W 062°15'511.0
2017-Sep-16 09:30N 16°32' W 062°19'510.7
2017-Sep-16 09:00N 16°37' W 062°22'611.1
2017-Sep-16 08:30N 16°41' W 062°26'611.5
2017-Sep-16 08:00N 16°45' W 062°30'  
2017-Sep-11 07:17N 16°45' W 062°31'310.1
2017-Sep-11 07:00N 16°42' W 062°30'510.3
2017-Sep-11 06:30N 16°38' W 062°27'5 9.9
2017-Sep-11 06:00N 16°33' W 062°25'510.0
2017-Sep-11 05:30N 16°29' W 062°23'5 9.8
2017-Sep-11 05:00N 16°24' W 062°21'11110.3
2017-Sep-10 18:18N 14°43' W 061°34'710.6
2017-Sep-10 17:37N 14°37' W 061°31'110.9
2017-Sep-10 17:29N 14°35' W 061°30'  
Track history (hours):
 
Tides and Currents Weather Stations Pressure Air Temp Water Temp Dewpoint Dewpoint Depression Visibility Wind Speed Wind Dir Waves Ship Positions

Emily Pg

Last reported at 2017-Sep-18 06:04 UTC. Time now 2017-Sep-23 23:48 UTC.
Position N 16°29' W 062°40'.

Length 102 m; draft 5.5 m.

Type: Tanker. MMSI: 232566000.

Date/timePositionNaut miles runAvg speedWind from/ knotsBaromVisibWave heightAir tempDewpointWater temp
2017-Sep-18 06:04N 16°29' W 062°40'411.1
2017-Sep-18 05:42N 16°33' W 062°41'7011.0
2017-Sep-17 23:21N 17°42' W 062°54'611.4
2017-Sep-17 22:52N 17°47' W 062°54'65 4.9
2017-Sep-17 09:35N 16°47' W 062°28'110.3
2017-Sep-17 09:30N 16°46' W 062°27'510.3
2017-Sep-17 09:01N 16°42' W 062°24'510.4
2017-Sep-17 08:30N 16°38' W 062°21'510.6
2017-Sep-17 08:00N 16°34' W 062°18'510.5
2017-Sep-17 07:31N 16°30' W 062°14'510.5
2017-Sep-17 07:01N 16°25' W 062°11'510.2
2017-Sep-17 06:31N 16°21' W 062°08'510.3
2017-Sep-17 06:00N 16°17' W 062°05'610.5
2017-Sep-17 05:23N 16°12' W 062°01'1710.6
2017-Sep-17 03:47N 15°59' W 061°49'310.9
2017-Sep-17 03:30N 15°58' W 061°46'10 9.8
2017-Sep-17 02:31N 15°58' W 061°36'610.2
2017-Sep-17 01:58N 16°01' W 061°32'5 9.9
2017-Sep-17 01:31N 16°06' W 061°31'510.7
2017-Sep-17 01:01N 16°11' W 061°31'3 0.4
2017-Sep-16 17:16N 16°14' W 061°33'0 0.0
2017-Sep-16 17:00N 16°14' W 061°33'3 5.9
2017-Sep-16 16:30N 16°11' W 061°31'5 9.2
2017-Sep-16 16:00N 16°07' W 061°30'711.5
2017-Sep-16 15:23N 15°60' W 061°31'510.9
2017-Sep-16 14:55N 15°58' W 061°35'7 9.6
2017-Sep-16 14:10N 15°55' W 061°43'310.5
2017-Sep-16 13:53N 15°55' W 061°46'3511.1
2017-Sep-16 10:47N 16°21' W 062°10'311.1
2017-Sep-16 10:30N 16°24' W 062°12'611.1
2017-Sep-16 10:00N 16°28' W 062°15'511.0
2017-Sep-16 09:30N 16°32' W 062°19'510.7
2017-Sep-16 09:00N 16°37' W 062°22'611.1
2017-Sep-16 08:30N 16°41' W 062°26'611.5
2017-Sep-16 08:00N 16°45' W 062°30'  
2017-Sep-11 07:17N 16°45' W 062°31'310.1
2017-Sep-11 07:00N 16°42' W 062°30'510.3
2017-Sep-11 06:30N 16°38' W 062°27'5 9.9
2017-Sep-11 06:00N 16°33' W 062°25'510.0
2017-Sep-11 05:30N 16°29' W 062°23'5 9.8
2017-Sep-11 05:00N 16°24' W 062°21'11110.3
2017-Sep-10 18:18N 14°43' W 061°34'710.6
2017-Sep-10 17:37N 14°37' W 061°31'110.9
2017-Sep-10 17:29N 14°35' W 061°30'  

Dump ship's entire track history